createdAt,value
2023-03-13T00:00:07.034Z,10.12
2023-03-13T00:01:06.939Z,10.15
2023-03-13T00:02:07.022Z,10.12
2023-03-13T00:03:06.904Z,10.14
2023-03-13T00:04:07.169Z,10.12
2023-03-13T00:05:06.893Z,10.19
2023-03-13T00:06:06.845Z,10.24
2023-03-13T00:07:06.966Z,10.25
2023-03-13T00:08:06.889Z,10.28
2023-03-13T00:09:06.893Z,10.28
2023-03-13T00:10:06.817Z,10.28
2023-03-13T00:11:06.873Z,10.26
2023-03-13T00:12:06.770Z,10.22
2023-03-13T00:13:07.247Z,10.17
2023-03-13T00:14:06.716Z,10.15
2023-03-13T00:15:06.770Z,10.12
2023-03-13T00:16:06.923Z,10.10
2023-03-13T00:17:06.737Z,10.07
2023-03-13T00:18:06.942Z,10.06
2023-03-13T00:19:06.861Z,10.01
2023-03-13T00:20:06.956Z,10.00
2023-03-13T00:21:06.655Z,9.97
2023-03-13T00:22:06.682Z,9.96
2023-03-13T00:23:06.675Z,9.94
2023-03-13T00:24:06.630Z,9.91
2023-03-13T00:25:06.830Z,9.88
2023-03-13T00:26:06.577Z,9.86
2023-03-13T00:27:06.546Z,9.85
2023-03-13T00:28:06.833Z,9.85
2023-03-13T00:29:06.589Z,9.83
2023-03-13T00:30:06.526Z,9.86
2023-03-13T00:31:06.624Z,9.86
2023-03-13T00:32:06.773Z,9.85
2023-03-13T00:33:06.565Z,9.83
2023-03-13T00:34:06.650Z,9.82
2023-03-13T00:35:06.530Z,9.78
2023-03-13T00:36:06.484Z,9.76
2023-03-13T00:37:06.510Z,9.73
2023-03-13T00:38:06.462Z,9.70
2023-03-13T00:39:06.853Z,9.67
2023-03-13T00:40:06.621Z,9.64
2023-03-13T00:41:06.466Z,9.64
2023-03-13T00:42:06.456Z,9.61
2023-03-13T00:43:06.454Z,9.60
2023-03-13T00:44:06.516Z,9.63
2023-03-13T00:45:06.442Z,9.67
2023-03-13T00:46:06.430Z,9.67
2023-03-13T00:47:06.634Z,9.67
2023-03-13T00:48:06.905Z,9.67
2023-03-13T00:49:06.556Z,9.66
2023-03-13T00:50:06.370Z,9.64
2023-03-13T00:51:06.558Z,9.66
2023-03-13T00:52:06.340Z,9.60
2023-03-13T00:53:06.539Z,9.60
2023-03-13T00:54:06.402Z,9.57
2023-03-13T00:55:06.496Z,9.56
2023-03-13T00:56:06.440Z,9.52
2023-03-13T00:57:06.438Z,9.53
2023-03-13T00:58:06.337Z,9.52
2023-03-13T00:59:06.274Z,9.48
2023-03-13T01:00:06.259Z,9.43
2023-03-13T01:01:06.437Z,9.38
2023-03-13T01:02:06.301Z,9.32
2023-03-13T01:03:07.064Z,9.31
2023-03-13T01:04:06.608Z,9.30
2023-03-13T01:05:06.430Z,9.30
2023-03-13T01:06:06.262Z,9.24
2023-03-13T01:07:06.284Z,9.25
2023-03-13T01:08:06.361Z,9.24
2023-03-13T01:09:06.370Z,9.23
2023-03-13T01:10:06.158Z,9.27
2023-03-13T01:11:06.173Z,9.28
2023-03-13T01:12:06.156Z,9.27
2023-03-13T01:13:06.147Z,9.25
2023-03-13T01:14:06.224Z,9.25
2023-03-13T01:15:06.084Z,9.25
2023-03-13T01:16:06.122Z,9.24
2023-03-13T01:17:06.073Z,9.25
2023-03-13T01:18:06.100Z,9.25
2023-03-13T01:19:06.971Z,9.25
2023-03-13T01:20:06.130Z,9.28
2023-03-13T01:21:06.104Z,9.27
2023-03-13T01:22:06.172Z,9.28
2023-03-13T01:23:06.073Z,9.27
2023-03-13T01:24:06.091Z,9.25
2023-03-13T01:25:06.138Z,9.24
2023-03-13T01:26:06.102Z,9.24
2023-03-13T01:27:06.015Z,9.24
2023-03-13T01:28:06.003Z,9.21
2023-03-13T01:29:06.165Z,9.20
2023-03-13T01:30:06.427Z,9.18
2023-03-13T01:31:06.062Z,9.21
2023-03-13T01:32:05.935Z,9.20
2023-03-13T01:33:05.926Z,9.21
2023-03-13T01:34:05.893Z,9.20
2023-03-13T01:35:05.923Z,9.20
2023-03-13T01:36:05.959Z,9.18
2023-03-13T01:37:05.930Z,9.21
2023-03-13T01:38:05.966Z,9.20
2023-03-13T01:39:05.958Z,9.21
2023-03-13T01:40:06.048Z,9.25
2023-03-13T01:41:06.052Z,9.28
2023-03-13T01:42:05.840Z,9.28
2023-03-13T01:43:07.812Z,9.25
2023-03-13T01:44:06.318Z,9.24
2023-03-13T01:45:05.795Z,9.25
2023-03-13T01:46:05.881Z,9.24
2023-03-13T01:47:05.766Z,9.24
2023-03-13T01:48:05.824Z,9.25
2023-03-13T01:49:05.750Z,9.25
2023-03-13T01:50:05.711Z,9.27
2023-03-13T01:51:05.720Z,9.25
2023-03-13T01:52:05.726Z,9.25
2023-03-13T01:53:05.860Z,9.24
2023-03-13T01:54:05.721Z,9.24
2023-03-13T01:55:05.706Z,9.25
2023-03-13T01:56:05.768Z,9.25
2023-03-13T01:57:05.656Z,9.24
2023-03-13T01:58:05.694Z,9.25
2023-03-13T01:59:05.666Z,9.25
2023-03-13T02:00:05.781Z,9.27
2023-03-13T02:01:05.809Z,9.27
2023-03-13T02:02:05.798Z,9.27
2023-03-13T02:03:05.705Z,9.25
2023-03-13T02:04:05.613Z,9.27
2023-03-13T02:05:05.583Z,9.25
2023-03-13T02:06:05.761Z,9.24
2023-03-13T02:07:05.713Z,9.25
2023-03-13T02:08:05.626Z,9.28
2023-03-13T02:09:05.612Z,9.31
2023-03-13T02:10:05.631Z,9.30
2023-03-13T02:11:05.592Z,9.31
2023-03-13T02:12:05.752Z,9.34
2023-03-13T02:13:05.931Z,9.31
2023-03-13T02:14:05.667Z,9.30
2023-03-13T02:15:05.834Z,9.30
2023-03-13T02:16:06.200Z,9.31
2023-03-13T02:17:05.504Z,9.32
2023-03-13T02:18:05.573Z,9.30
2023-03-13T02:19:05.809Z,9.32
2023-03-13T02:20:05.479Z,9.32
2023-03-13T02:21:05.821Z,9.32
2023-03-13T02:22:05.432Z,9.34
2023-03-13T02:23:05.694Z,9.32
2023-03-13T02:24:05.594Z,9.32
2023-03-13T02:25:06.015Z,9.39
2023-03-13T02:26:05.388Z,9.42
2023-03-13T02:27:05.627Z,9.40
2023-03-13T02:28:05.384Z,9.43
2023-03-13T02:29:05.472Z,9.43
2023-03-13T02:30:05.385Z,9.45
2023-03-13T02:31:05.413Z,9.45
2023-03-13T02:32:05.489Z,9.46
2023-03-13T02:33:05.349Z,9.46
2023-03-13T02:34:05.285Z,9.48
2023-03-13T02:35:05.360Z,9.50
2023-03-13T02:36:05.454Z,9.49
2023-03-13T02:37:05.727Z,9.48
2023-03-13T02:38:05.318Z,9.48
2023-03-13T02:39:05.416Z,9.48
2023-03-13T02:40:05.269Z,9.50
2023-03-13T02:41:05.456Z,9.49
2023-03-13T02:42:05.221Z,9.50
2023-03-13T02:43:05.479Z,9.50
2023-03-13T02:44:05.234Z,9.50
2023-03-13T02:45:05.201Z,9.50
2023-03-13T02:46:05.400Z,9.50
2023-03-13T02:47:05.469Z,9.50
2023-03-13T02:48:05.167Z,9.49
2023-03-13T02:49:05.202Z,9.52
2023-03-13T02:50:05.152Z,9.52
2023-03-13T02:51:05.107Z,9.52
2023-03-13T02:52:05.122Z,9.50
2023-03-13T02:53:05.230Z,9.53
2023-03-13T02:54:05.126Z,9.50
2023-03-13T02:55:05.384Z,9.56
2023-03-13T02:56:05.074Z,9.57
2023-03-13T02:57:05.132Z,9.58
2023-03-13T02:58:05.100Z,9.60
2023-03-13T02:59:05.980Z,9.60
2023-03-13T03:00:05.130Z,9.61
2023-03-13T03:01:05.298Z,9.60
2023-03-13T03:02:05.201Z,9.63
2023-03-13T03:03:05.231Z,9.66
2023-03-13T03:04:05.243Z,9.70
2023-03-13T03:05:05.012Z,9.70
2023-03-13T03:06:05.058Z,9.71
2023-03-13T03:07:05.024Z,9.71
2023-03-13T03:08:05.202Z,9.76
2023-03-13T03:09:04.964Z,9.76
2023-03-13T03:10:05.017Z,9.78
2023-03-13T03:11:05.095Z,9.79
2023-03-13T03:12:05.289Z,9.82
2023-03-13T03:13:04.992Z,9.85
2023-03-13T03:14:05.079Z,9.86
2023-03-13T03:15:05.132Z,9.89
2023-03-13T03:16:05.181Z,9.93
2023-03-13T03:17:05.076Z,9.93
2023-03-13T03:18:05.056Z,9.96
2023-03-13T03:19:05.118Z,9.96
2023-03-13T03:20:04.961Z,9.97
2023-03-13T03:21:04.830Z,9.97
2023-03-13T03:22:04.840Z,9.99
2023-03-13T03:23:04.807Z,9.99
2023-03-13T03:24:04.820Z,10.03
2023-03-13T03:25:05.364Z,10.03
2023-03-13T03:26:05.040Z,10.03
2023-03-13T03:27:04.829Z,10.03
2023-03-13T03:28:04.948Z,10.04
2023-03-13T03:29:04.906Z,10.04
2023-03-13T03:30:04.821Z,10.04
2023-03-13T03:31:04.848Z,10.09
2023-03-13T03:32:05.013Z,10.07
2023-03-13T03:33:04.811Z,10.09
2023-03-13T03:34:04.756Z,10.09
2023-03-13T03:35:04.863Z,10.14
2023-03-13T03:36:04.739Z,10.18
2023-03-13T03:37:04.764Z,10.17
2023-03-13T03:38:04.880Z,10.19
2023-03-13T03:39:04.684Z,10.22
2023-03-13T03:40:04.692Z,10.24
2023-03-13T03:41:04.704Z,10.22
2023-03-13T03:42:05.036Z,10.19
2023-03-13T03:43:04.642Z,10.22
2023-03-13T03:44:04.624Z,10.24
2023-03-13T03:45:04.677Z,10.33
2023-03-13T03:46:04.753Z,10.32
2023-03-13T03:47:04.742Z,10.32
2023-03-13T03:48:04.589Z,10.36
2023-03-13T03:49:04.734Z,10.37
2023-03-13T03:50:04.930Z,10.37
2023-03-13T03:51:04.679Z,10.39
2023-03-13T03:52:04.525Z,10.40
2023-03-13T03:53:04.518Z,10.39
2023-03-13T03:54:04.597Z,10.39
2023-03-13T03:55:04.603Z,10.39
2023-03-13T03:56:04.837Z,10.40
2023-03-13T03:57:04.523Z,10.40
2023-03-13T03:58:04.687Z,10.40
2023-03-13T03:59:04.473Z,10.39
2023-03-13T04:00:04.448Z,10.40
2023-03-13T04:01:04.482Z,10.42
2023-03-13T04:02:04.534Z,10.43
2023-03-13T04:03:04.500Z,10.47
2023-03-13T04:04:04.404Z,10.52
2023-03-13T04:05:04.567Z,10.51
2023-03-13T04:06:04.395Z,10.47
2023-03-13T04:07:04.431Z,10.46
2023-03-13T04:08:04.348Z,10.46
2023-03-13T04:09:04.345Z,10.44
2023-03-13T04:10:04.396Z,10.44
2023-03-13T04:11:04.389Z,10.46
2023-03-13T04:12:04.467Z,10.44
2023-03-13T04:13:04.466Z,10.44
2023-03-13T04:14:04.410Z,10.51
2023-03-13T04:15:04.341Z,10.52
2023-03-13T04:16:04.291Z,10.51
2023-03-13T04:17:04.476Z,10.52
2023-03-13T04:18:04.505Z,10.51
2023-03-13T04:19:04.483Z,10.51
2023-03-13T04:20:04.315Z,10.52
2023-03-13T04:21:04.262Z,10.52
2023-03-13T04:22:04.517Z,10.55
2023-03-13T04:23:04.440Z,10.55
2023-03-13T04:24:04.212Z,10.56
2023-03-13T04:25:04.220Z,10.55
2023-03-13T04:26:04.179Z,10.53
2023-03-13T04:27:04.191Z,10.53
2023-03-13T04:28:04.376Z,10.53
2023-03-13T04:29:04.296Z,10.55
2023-03-13T04:30:04.313Z,10.58
2023-03-13T04:31:04.894Z,10.60
2023-03-13T04:32:04.159Z,10.62
2023-03-13T04:33:04.415Z,10.62
2023-03-13T04:34:04.158Z,10.63
2023-03-13T04:35:04.312Z,10.63
2023-03-13T04:36:04.209Z,10.65
2023-03-13T04:37:04.166Z,10.63
2023-03-13T04:38:04.148Z,10.63
2023-03-13T04:39:04.270Z,10.66
2023-03-13T04:40:04.350Z,10.68
2023-03-13T04:41:04.090Z,10.70
2023-03-13T04:42:04.055Z,10.70
2023-03-13T04:43:04.482Z,10.68
2023-03-13T04:44:04.150Z,10.70
2023-03-13T04:45:04.149Z,10.71
2023-03-13T04:46:04.137Z,10.74
2023-03-13T04:47:03.989Z,10.76
2023-03-13T04:48:03.970Z,10.77
2023-03-13T04:49:04.101Z,10.81
2023-03-13T04:50:04.007Z,10.83
2023-03-13T04:51:04.113Z,10.83
2023-03-13T04:52:04.185Z,10.92
2023-03-13T04:53:04.250Z,10.92
2023-03-13T04:54:04.235Z,10.95
2023-03-13T04:55:03.941Z,10.99
2023-03-13T04:56:03.958Z,10.99
2023-03-13T04:57:04.082Z,11.06
2023-03-13T04:58:03.907Z,11.10
2023-03-13T04:59:03.945Z,11.10
2023-03-13T05:00:03.973Z,11.10
2023-03-13T05:01:03.895Z,11.10
2023-03-13T05:02:03.852Z,11.13
2023-03-13T05:03:04.046Z,11.14
2023-03-13T05:04:03.841Z,11.19
2023-03-13T05:05:04.039Z,11.21
2023-03-13T05:06:03.964Z,11.25
2023-03-13T05:07:04.061Z,11.28
2023-03-13T05:08:03.915Z,11.29
2023-03-13T05:09:03.831Z,11.32
2023-03-13T05:10:04.098Z,11.39
2023-03-13T05:11:03.775Z,11.44
2023-03-13T05:12:04.072Z,11.47
2023-03-13T05:13:04.107Z,11.50
2023-03-13T05:14:03.721Z,11.52
2023-03-13T05:15:03.699Z,11.50
2023-03-13T05:16:03.815Z,11.50
2023-03-13T05:17:03.845Z,11.54
2023-03-13T05:18:03.724Z,11.56
2023-03-13T05:19:03.749Z,11.56
2023-03-13T05:20:03.664Z,11.56
2023-03-13T05:21:03.663Z,11.57
2023-03-13T05:22:03.642Z,11.61
2023-03-13T05:23:03.650Z,11.64
2023-03-13T05:24:03.871Z,11.67
2023-03-13T05:25:03.655Z,11.64
2023-03-13T05:26:03.605Z,11.62
2023-03-13T05:27:03.614Z,11.65
2023-03-13T05:28:03.602Z,11.68
2023-03-13T05:29:03.586Z,11.68
2023-03-13T05:30:03.588Z,11.65
2023-03-13T05:31:03.731Z,11.67
2023-03-13T05:32:03.565Z,11.65
2023-03-13T05:33:03.657Z,11.67
2023-03-13T05:34:03.758Z,11.68
2023-03-13T05:35:03.598Z,11.67
2023-03-13T05:36:03.683Z,11.67
2023-03-13T05:37:03.689Z,11.67
2023-03-13T05:38:03.880Z,11.67
2023-03-13T05:39:04.481Z,11.68
2023-03-13T05:40:03.689Z,11.67
2023-03-13T05:41:03.565Z,11.68
2023-03-13T05:42:03.563Z,11.70
2023-03-13T05:43:03.460Z,11.74
2023-03-13T05:44:03.400Z,11.80
2023-03-13T05:45:03.398Z,11.85
2023-03-13T05:46:03.472Z,11.93
2023-03-13T05:47:04.243Z,11.93
2023-03-13T05:48:03.386Z,11.89
2023-03-13T05:49:03.488Z,11.87
2023-03-13T05:50:03.464Z,11.85
2023-03-13T05:51:03.545Z,11.82
2023-03-13T05:52:03.352Z,11.83
2023-03-13T05:53:03.353Z,11.83
2023-03-13T05:54:03.325Z,11.85
2023-03-13T05:55:03.340Z,11.87
2023-03-13T05:56:03.319Z,11.90
2023-03-13T05:57:03.592Z,11.90
2023-03-13T05:58:03.485Z,11.93
2023-03-13T05:59:03.459Z,11.90
2023-03-13T06:00:03.363Z,11.94
2023-03-13T06:01:03.690Z,11.97
2023-03-13T06:02:03.243Z,12.01
2023-03-13T06:03:03.434Z,11.99
2023-03-13T06:04:03.528Z,11.99
2023-03-13T06:05:03.524Z,11.97
2023-03-13T06:06:03.332Z,11.99
2023-03-13T06:07:03.423Z,11.99
2023-03-13T06:08:03.522Z,12.04
2023-03-13T06:09:03.369Z,12.02
2023-03-13T06:10:03.270Z,12.01
2023-03-13T06:11:03.138Z,12.01
2023-03-13T06:12:03.230Z,11.99
2023-03-13T06:13:17.390Z,11.99
2023-03-13T06:14:03.439Z,12.06
2023-03-13T06:15:03.685Z,12.11
2023-03-13T06:16:03.348Z,12.15
2023-03-13T06:17:03.395Z,12.16
2023-03-13T06:18:03.090Z,12.15
2023-03-13T06:19:03.185Z,12.15
2023-03-13T06:20:03.054Z,12.15
2023-03-13T06:21:03.050Z,12.12
2023-03-13T06:22:03.032Z,12.20
2023-03-13T06:23:03.033Z,12.23
2023-03-13T06:24:02.991Z,12.29
2023-03-13T06:25:03.227Z,12.31
2023-03-13T06:26:03.184Z,12.30
2023-03-13T06:27:02.939Z,12.30
2023-03-13T06:28:03.151Z,12.30
2023-03-13T06:29:02.958Z,12.29
2023-03-13T06:30:02.995Z,12.24
2023-03-13T06:31:03.225Z,12.29
2023-03-13T06:32:03.160Z,12.37
2023-03-13T06:33:03.157Z,12.44
2023-03-13T06:34:02.897Z,12.42
2023-03-13T06:35:03.319Z,12.44
2023-03-13T06:36:03.350Z,12.39
2023-03-13T06:37:03.197Z,12.39
2023-03-13T06:38:02.889Z,12.42
2023-03-13T06:39:02.901Z,12.39
2023-03-13T06:40:03.021Z,12.41
2023-03-13T06:41:02.983Z,12.41
2023-03-13T06:42:02.981Z,12.44
2023-03-13T06:43:02.884Z,12.45
2023-03-13T06:44:02.852Z,12.46
2023-03-13T06:45:03.039Z,12.46
2023-03-13T06:46:02.826Z,12.49
2023-03-13T06:47:02.893Z,12.45
2023-03-13T06:48:02.802Z,12.46
2023-03-13T06:49:02.852Z,12.49
2023-03-13T06:50:02.806Z,12.51
2023-03-13T06:51:02.914Z,12.56
2023-03-13T06:52:02.844Z,12.56
2023-03-13T06:53:02.735Z,12.51
2023-03-13T06:54:02.854Z,12.51
2023-03-13T06:55:02.751Z,12.54
2023-03-13T06:56:02.904Z,12.60
2023-03-13T06:57:02.697Z,12.64
2023-03-13T06:58:02.774Z,12.62
2023-03-13T06:59:02.659Z,12.62
2023-03-13T07:00:02.793Z,12.66
2023-03-13T07:01:02.783Z,12.70
2023-03-13T07:02:02.869Z,12.70
2023-03-13T07:03:02.628Z,12.78
2023-03-13T07:04:02.715Z,12.87
2023-03-13T07:05:02.609Z,12.82
2023-03-13T07:06:02.631Z,12.85
2023-03-13T07:07:02.671Z,12.82
2023-03-13T07:08:02.601Z,12.78
2023-03-13T07:09:02.580Z,12.78
2023-03-13T07:10:02.565Z,12.77
2023-03-13T07:11:02.568Z,12.88
2023-03-13T07:12:02.523Z,12.92
2023-03-13T07:13:02.950Z,12.89
2023-03-13T07:14:15.664Z,12.89
2023-03-13T07:15:02.531Z,12.93
2023-03-13T07:16:02.713Z,12.93
2023-03-13T07:17:02.578Z,12.88
2023-03-13T07:18:02.487Z,12.88
2023-03-13T07:19:02.622Z,12.88
2023-03-13T07:20:02.633Z,12.89
2023-03-13T07:21:02.554Z,12.92
2023-03-13T07:22:03.178Z,12.95
2023-03-13T07:23:02.435Z,12.97
2023-03-13T07:24:02.435Z,12.97
2023-03-13T07:25:02.466Z,13.03
2023-03-13T07:26:02.380Z,13.00
2023-03-13T07:27:07.683Z,12.99
2023-03-13T07:28:02.412Z,13.11
2023-03-13T07:29:02.402Z,13.14
2023-03-13T07:30:02.403Z,13.18
2023-03-13T07:31:02.399Z,13.24
2023-03-13T07:32:02.469Z,13.24
2023-03-13T07:33:02.505Z,13.24
2023-03-13T07:34:02.557Z,13.24
2023-03-13T07:35:02.698Z,13.21
2023-03-13T07:36:02.512Z,13.20
2023-03-13T07:37:02.341Z,13.20
2023-03-13T07:38:02.457Z,13.17
2023-03-13T07:39:02.381Z,13.14
2023-03-13T07:40:02.352Z,13.18
2023-03-13T07:41:02.255Z,13.17
2023-03-13T07:42:02.610Z,13.11
2023-03-13T07:43:02.672Z,13.14
2023-03-13T07:44:02.340Z,13.21
2023-03-13T07:45:02.202Z,13.20
2023-03-13T07:46:02.357Z,13.20
2023-03-13T07:47:02.537Z,13.20
2023-03-13T07:48:02.266Z,13.20
2023-03-13T07:49:02.202Z,13.25
2023-03-13T07:50:02.292Z,13.32
2023-03-13T07:51:02.311Z,13.36
2023-03-13T07:52:02.235Z,13.32
2023-03-13T07:53:02.421Z,13.32
2023-03-13T07:54:02.404Z,13.38
2023-03-13T07:55:02.146Z,13.37
2023-03-13T07:56:02.110Z,13.33
2023-03-13T07:57:02.123Z,13.27
2023-03-13T07:58:02.155Z,13.20
2023-03-13T07:59:02.060Z,13.27
2023-03-13T08:00:02.196Z,13.29
2023-03-13T08:01:02.120Z,13.27
2023-03-13T08:02:02.226Z,13.22
2023-03-13T08:03:02.148Z,13.24
2023-03-13T08:04:02.117Z,13.27
2023-03-13T08:05:02.062Z,13.41
2023-03-13T08:06:02.247Z,13.43
2023-03-13T08:07:02.214Z,13.38
2023-03-13T08:08:02.015Z,13.33
2023-03-13T08:09:02.086Z,13.30
2023-03-13T08:10:01.983Z,13.22
2023-03-13T08:11:02.011Z,13.20
2023-03-13T08:12:02.355Z,13.24
2023-03-13T08:13:02.045Z,13.30
2023-03-13T08:14:01.984Z,13.30
2023-03-13T08:15:01.931Z,13.32
2023-03-13T08:16:01.995Z,13.37
2023-03-13T08:17:02.153Z,13.30
2023-03-13T08:18:02.198Z,13.37
2023-03-13T08:19:01.923Z,13.43
2023-03-13T08:20:02.089Z,13.47
2023-03-13T08:21:02.087Z,13.47
2023-03-13T08:22:01.995Z,13.49
2023-03-13T08:23:01.879Z,13.47
2023-03-13T08:24:01.884Z,13.51
2023-03-13T08:25:01.965Z,13.51
2023-03-13T08:26:01.974Z,13.47
2023-03-13T08:27:02.003Z,13.47
2023-03-13T08:28:02.625Z,13.47
2023-03-13T08:29:01.872Z,13.47
2023-03-13T08:30:01.810Z,13.54
2023-03-13T08:31:01.908Z,13.54
2023-03-13T08:32:02.004Z,13.56
2023-03-13T08:33:01.837Z,13.58
2023-03-13T08:34:01.686Z,13.58
2023-03-13T08:35:01.784Z,13.58
2023-03-13T08:36:01.831Z,13.56
2023-03-13T08:37:01.923Z,13.56
2023-03-13T08:38:02.127Z,13.58
2023-03-13T08:39:02.063Z,13.56
2023-03-13T08:40:01.697Z,13.61
2023-03-13T08:41:01.905Z,13.62
2023-03-13T08:42:01.686Z,13.63
2023-03-13T08:43:01.647Z,13.67
2023-03-13T08:44:01.649Z,13.67
2023-03-13T08:45:01.708Z,13.71
2023-03-13T08:46:01.813Z,13.71
2023-03-13T08:47:01.617Z,13.71
2023-03-13T08:48:01.739Z,13.77
2023-03-13T08:49:01.800Z,13.81
2023-03-13T08:50:01.649Z,13.80
2023-03-13T08:51:01.591Z,13.76
2023-03-13T08:52:01.581Z,13.76
2023-03-13T08:53:01.576Z,13.74
2023-03-13T08:54:01.557Z,13.74
2023-03-13T08:55:01.536Z,13.73
2023-03-13T08:56:01.555Z,13.77
2023-03-13T08:57:01.489Z,13.87
2023-03-13T08:58:01.697Z,13.95
2023-03-13T08:59:01.682Z,14.02
2023-03-13T09:00:01.572Z,14.14
2023-03-13T09:01:01.684Z,14.28
2023-03-13T09:02:01.475Z,14.38
2023-03-13T09:03:01.464Z,14.44
2023-03-13T09:04:04.143Z,14.49
2023-03-13T09:05:01.579Z,14.53
2023-03-13T09:06:01.460Z,14.54
2023-03-13T09:07:01.539Z,14.53
2023-03-13T09:08:01.516Z,14.56
2023-03-13T09:09:01.533Z,14.64
2023-03-13T09:10:01.519Z,14.72
2023-03-13T09:11:01.382Z,14.86
2023-03-13T09:12:01.392Z,14.93
2023-03-13T09:13:01.565Z,14.95
2023-03-13T09:14:01.598Z,15.05
2023-03-13T09:15:01.335Z,15.11
2023-03-13T09:16:01.554Z,15.09
2023-03-13T09:17:01.558Z,15.11
2023-03-13T09:18:01.342Z,15.06
2023-03-13T09:19:01.376Z,15.02
2023-03-13T09:20:01.530Z,14.99
2023-03-13T09:21:01.441Z,14.95
2023-03-13T09:22:01.392Z,15.05
2023-03-13T09:23:01.280Z,15.15
2023-03-13T09:24:01.413Z,15.31
2023-03-13T09:25:01.245Z,15.38
2023-03-13T09:26:01.254Z,15.42
2023-03-13T09:27:01.887Z,15.49
2023-03-13T09:28:01.442Z,15.51
2023-03-13T09:29:01.216Z,15.51
2023-03-13T09:30:01.223Z,15.48
2023-03-13T09:31:01.235Z,15.42
2023-03-13T09:32:01.180Z,15.36
2023-03-13T09:33:01.226Z,15.27
2023-03-13T09:34:01.315Z,15.27
2023-03-13T09:35:01.147Z,15.26
2023-03-13T09:36:01.172Z,15.21
2023-03-13T09:37:01.161Z,15.20
2023-03-13T09:38:01.205Z,15.13
2023-03-13T09:39:01.296Z,15.17
2023-03-13T09:40:01.129Z,15.27
2023-03-13T09:41:06.256Z,15.59
2023-03-13T09:42:01.080Z,15.82
2023-03-13T09:43:01.261Z,15.93
2023-03-13T09:44:01.230Z,15.86
2023-03-13T09:45:01.043Z,15.84
2023-03-13T09:46:01.302Z,15.75
2023-03-13T09:47:01.022Z,15.64
2023-03-13T09:48:01.013Z,15.57
2023-03-13T09:49:01.483Z,15.45
2023-03-13T09:50:01.010Z,15.35
2023-03-13T09:51:00.994Z,15.27
2023-03-13T09:52:00.993Z,15.20
2023-03-13T09:53:00.967Z,15.15
2023-03-13T09:54:00.953Z,15.30
2023-03-13T09:55:00.971Z,15.48
2023-03-13T09:56:01.034Z,15.66
2023-03-13T09:57:01.026Z,15.89
2023-03-13T09:58:00.926Z,15.82
2023-03-13T09:59:00.966Z,15.81
2023-03-13T10:00:00.993Z,15.81
2023-03-13T10:01:00.939Z,15.78
2023-03-13T10:02:01.109Z,15.70
2023-03-13T10:03:00.873Z,15.52
2023-03-13T10:04:00.945Z,15.43
2023-03-13T10:05:00.796Z,15.41
2023-03-13T10:06:00.994Z,15.43
2023-03-13T10:07:00.865Z,15.48
2023-03-13T10:08:00.807Z,15.57
2023-03-13T10:09:00.783Z,15.70
2023-03-13T10:10:00.791Z,16.06
2023-03-13T10:11:00.992Z,16.25
2023-03-13T10:12:00.783Z,16.52
2023-03-13T10:13:00.791Z,16.62
2023-03-13T10:14:00.941Z,16.59
2023-03-13T10:15:00.725Z,16.52
2023-03-13T10:16:00.919Z,16.34
2023-03-13T10:17:00.875Z,16.23
2023-03-13T10:18:00.770Z,16.12
2023-03-13T10:19:00.761Z,16.48
2023-03-13T10:20:00.726Z,16.67
2023-03-13T10:21:00.794Z,16.85
2023-03-13T10:22:00.843Z,17.36
2023-03-13T10:23:00.659Z,18.17
2023-03-13T10:24:00.638Z,18.27
2023-03-13T10:25:00.656Z,17.89
2023-03-13T10:26:00.604Z,17.87
2023-03-13T10:27:00.627Z,17.73
2023-03-13T10:28:00.583Z,17.81
2023-03-13T10:29:00.579Z,17.67
2023-03-13T10:30:00.593Z,17.32
2023-03-13T10:31:00.642Z,17.32
2023-03-13T10:32:00.612Z,17.18
2023-03-13T10:33:00.631Z,16.95
2023-03-13T10:34:00.550Z,16.83
2023-03-13T10:35:00.574Z,16.68
2023-03-13T10:36:00.860Z,16.27
2023-03-13T10:37:00.546Z,16.16
2023-03-13T10:38:01.105Z,16.09
2023-03-13T10:39:00.543Z,16.16
2023-03-13T10:40:00.510Z,16.22
2023-03-13T10:41:00.680Z,16.16
2023-03-13T10:42:00.996Z,16.18
2023-03-13T10:43:00.642Z,16.49
2023-03-13T10:44:00.606Z,16.80
2023-03-13T10:45:00.785Z,16.92
2023-03-13T10:46:00.405Z,17.06
2023-03-13T10:47:00.745Z,17.06
2023-03-13T10:48:00.655Z,16.93
2023-03-13T10:49:00.417Z,16.77
2023-03-13T10:50:00.428Z,16.65
2023-03-13T10:51:02.334Z,16.60
2023-03-13T10:52:00.376Z,16.56
2023-03-13T10:53:00.798Z,16.52
2023-03-13T10:54:00.461Z,16.49
2023-03-13T10:55:01.019Z,16.45
2023-03-13T10:56:00.355Z,16.52
2023-03-13T10:57:00.473Z,16.68
2023-03-13T10:58:00.462Z,16.95
2023-03-13T10:59:00.696Z,17.17
2023-03-13T11:00:01.513Z,17.15
2023-03-13T11:01:00.437Z,17.07
2023-03-13T11:02:00.353Z,17.00
2023-03-13T11:03:00.670Z,16.85
2023-03-13T11:04:00.546Z,16.77
2023-03-13T11:05:00.345Z,16.68
2023-03-13T11:06:00.316Z,16.59
2023-03-13T11:07:00.291Z,16.45
2023-03-13T11:08:00.486Z,16.38
2023-03-13T11:09:00.223Z,16.35
2023-03-13T11:10:00.427Z,16.37
2023-03-13T11:11:00.171Z,16.40
2023-03-13T11:12:00.310Z,16.45
2023-03-13T11:13:00.355Z,16.55
2023-03-13T11:14:00.407Z,16.50
2023-03-13T11:15:00.344Z,16.40
2023-03-13T11:16:00.298Z,16.41
2023-03-13T11:17:00.243Z,16.41
2023-03-13T11:18:00.244Z,16.38
2023-03-13T11:19:00.240Z,16.38
2023-03-13T11:20:00.234Z,16.35
2023-03-13T11:21:12.163Z,16.38
2023-03-13T11:22:00.132Z,16.38
2023-03-13T11:23:00.200Z,16.34
2023-03-13T11:24:00.189Z,16.31
2023-03-13T11:25:00.268Z,16.30
2023-03-13T11:26:00.142Z,16.27
2023-03-13T11:27:04.779Z,16.41
2023-03-13T11:28:00.189Z,16.55
2023-03-13T11:29:00.123Z,16.58
2023-03-13T11:30:00.085Z,16.59
2023-03-13T11:31:00.146Z,16.62
2023-03-13T11:32:00.066Z,16.77
2023-03-13T11:33:00.210Z,17.00
2023-03-13T11:33:59.942Z,17.11
2023-03-13T11:35:00.266Z,17.14
2023-03-13T11:36:00.250Z,17.07
2023-03-13T11:36:59.930Z,16.93
2023-03-13T11:38:00.133Z,16.93
2023-03-13T11:39:00.010Z,16.96
2023-03-13T11:39:59.872Z,17.00
2023-03-13T11:40:59.856Z,17.08
2023-03-13T11:41:59.874Z,17.30
2023-03-13T11:42:59.905Z,17.33
2023-03-13T11:43:59.999Z,17.54
2023-03-13T11:44:59.961Z,17.50
2023-03-13T11:45:59.966Z,17.32
2023-03-13T11:47:00.110Z,17.20
2023-03-13T11:47:59.810Z,17.18
2023-03-13T11:48:59.997Z,17.22
2023-03-13T11:49:59.780Z,17.18
2023-03-13T11:50:59.774Z,17.22
2023-03-13T11:51:59.788Z,17.14
2023-03-13T11:53:00.049Z,17.17
2023-03-13T11:53:59.908Z,17.15
2023-03-13T11:55:00.029Z,17.08
2023-03-13T11:55:59.749Z,17.00
2023-03-13T11:56:59.780Z,16.92
2023-03-13T11:57:59.974Z,16.86
2023-03-13T11:58:59.785Z,16.89
2023-03-13T11:59:59.753Z,16.92
2023-03-13T12:01:00.031Z,16.90
2023-03-13T12:01:59.782Z,17.07
2023-03-13T12:02:59.732Z,17.03
2023-03-13T12:03:59.779Z,17.07
2023-03-13T12:04:59.688Z,17.76
2023-03-13T12:05:59.727Z,17.70
2023-03-13T12:06:59.708Z,17.59
2023-03-13T12:07:59.766Z,17.40
2023-03-13T12:08:59.641Z,17.32
2023-03-13T12:09:59.812Z,17.26
2023-03-13T12:10:59.698Z,17.18
2023-03-13T12:11:59.765Z,17.15
2023-03-13T12:12:59.601Z,17.17
2023-03-13T12:13:59.853Z,17.11
2023-03-13T12:14:59.535Z,17.07
2023-03-13T12:15:59.504Z,17.08
2023-03-13T12:16:59.603Z,17.22
2023-03-13T12:17:59.622Z,17.10
2023-03-13T12:18:59.505Z,17.06
2023-03-13T12:19:59.490Z,17.06
2023-03-13T12:20:59.479Z,17.10
2023-03-13T12:21:59.495Z,17.04
2023-03-13T12:22:59.447Z,17.03
2023-03-13T12:23:59.541Z,17.06
2023-03-13T12:24:59.502Z,17.03
2023-03-13T12:25:59.646Z,17.00
2023-03-13T12:26:59.456Z,17.00
2023-03-13T12:27:59.473Z,16.98
2023-03-13T12:28:59.424Z,16.98
2023-03-13T12:29:59.991Z,16.98
2023-03-13T12:30:59.525Z,16.89
2023-03-13T12:31:59.350Z,16.88
2023-03-13T12:33:00.506Z,16.83
2023-03-13T12:33:59.341Z,16.81
2023-03-13T12:34:59.327Z,16.77
2023-03-13T12:35:59.416Z,16.75
2023-03-13T12:36:59.348Z,16.71
2023-03-13T12:37:59.420Z,16.67
2023-03-13T12:39:00.446Z,16.68
2023-03-13T12:39:59.319Z,16.68
2023-03-13T12:40:59.308Z,16.71
2023-03-13T12:41:59.285Z,16.70
2023-03-13T12:42:59.304Z,16.74
2023-03-13T12:44:09.116Z,16.83
2023-03-13T12:44:59.255Z,16.86
2023-03-13T12:45:59.376Z,16.88
2023-03-13T12:46:59.419Z,16.90
2023-03-13T12:47:59.238Z,16.89
2023-03-13T12:48:59.206Z,16.88
2023-03-13T12:49:59.381Z,16.85
2023-03-13T12:50:59.456Z,16.75
2023-03-13T12:51:59.350Z,16.73
2023-03-13T12:52:59.382Z,16.70
2023-03-13T12:53:59.415Z,16.67
2023-03-13T12:54:59.747Z,16.68
2023-03-13T12:55:59.683Z,16.73
2023-03-13T12:56:59.424Z,16.77
2023-03-13T12:57:59.370Z,16.77